CheckWX is a tool to help pilots better visualize weather data.  It is not intended as a substitute for an official pre-flight weather briefing.

02:50:31 UTC

KBEH METAR
Southwest Michigan Regional Airport
Benton Harbor, Michigan, USA
Current

17 mins ago

KBEH 230234Z AUTO 27012G27KT 8SM BKN009 OVC013 22/21 A2982 RMK AO2 PK WND 25027/0230 RAE34 CIG 006V012 P0004 T02220206 $
Observed
Sep-23 @ 02:34 UTC
Wind
  • 270° at 12 KTS
  • Gusting to 27 KTS
Visibility
8 SM
Flight Rules
IFR
Cloud Levels
  • Broken at 900' AGL
  • Overcast at 1,300' AGL
Temperature
22°C / 72°F
Dewpoint
21°C / 70°F
Humidity
94%
Altimeter
29.82" Hg
Pressure
1009.82 hPa
Current Rain
0.04"
Previous

36 mins ago

KBEH 230215Z AUTO 22014G26KT 4SM -RA BR FEW009 BKN013 OVC023 22/21 A2980 RMK AO2 PK WND 22026/0210 P0002 T02220206 $
Observed
Sep-23 @ 02:15 UTC
Wind
  • 220° at 14 KTS
  • Gusting to 26 KTS
Visibility
4 SM
Flight Rules
MVFR
Conditions
Light Rain, Mist
Cloud Levels
  • Few at 900' AGL
  • Broken at 1,300' AGL
  • Overcast at 2,300' AGL
Temperature
22°C / 72°F
Dewpoint
21°C / 70°F
Humidity
94%
Altimeter
29.8" Hg
Pressure
1009.12 hPa
Current Rain
0.02"
Previous

58 mins ago

KBEH 230153Z AUTO 23010KT 6SM -RA BR FEW015 BKN023 OVC060 22/20 A2981 RMK AO2 RAE19B40 SLP089 P0001 T02220200 $
Observed
Sep-23 @ 01:53 UTC
Wind
  • 230° at 10 KTS
Visibility
6 SM
Flight Rules
MVFR
Conditions
Light Rain, Mist
Cloud Levels
  • Few at 1,500' AGL
  • Broken at 2,300' AGL
  • Overcast at 6,000' AGL
Temperature
22°C / 72°F
Dewpoint
20°C / 68°F
Humidity
88%
Altimeter
29.81" Hg
Pressure
1009.52 hPa
Current Rain
0.01"